sensor_id;sensor_type;location;lat;lon;timestamp;P1;durP1;ratioP1;P2;durP2;ratioP2
19605;SDS011;9950;50.168;8.210;2024-02-28T00:02:18;42.78;;;18.98;;
19605;SDS011;9950;50.168;8.210;2024-02-28T00:04:45;52.97;;;21.15;;
19605;SDS011;9950;50.168;8.210;2024-02-28T00:07:12;47.28;;;20.08;;
19605;SDS011;9950;50.168;8.210;2024-02-28T00:09:40;40.33;;;19.55;;
19605;SDS011;9950;50.168;8.210;2024-02-28T00:12:08;43.42;;;20.52;;
19605;SDS011;9950;50.168;8.210;2024-02-28T00:14:35;39.38;;;18.42;;
19605;SDS011;9950;50.168;8.210;2024-02-28T00:17:02;41.67;;;20.13;;
19605;SDS011;9950;50.168;8.210;2024-02-28T00:19:29;46.30;;;21.77;;
19605;SDS011;9950;50.168;8.210;2024-02-28T00:21:57;43.45;;;20.58;;
19605;SDS011;9950;50.168;8.210;2024-02-28T00:24:26;44.15;;;21.17;;
19605;SDS011;9950;50.168;8.210;2024-02-28T00:26:56;40.95;;;19.23;;
19605;SDS011;9950;50.168;8.210;2024-02-28T00:29:23;39.40;;;18.08;;
19605;SDS011;9950;50.168;8.210;2024-02-28T00:31:50;39.70;;;18.60;;
19605;SDS011;9950;50.168;8.210;2024-02-28T00:34:17;42.20;;;19.30;;
19605;SDS011;9950;50.168;8.210;2024-02-28T00:36:44;40.35;;;19.45;;
19605;SDS011;9950;50.168;8.210;2024-02-28T00:39:11;43.17;;;18.77;;
19605;SDS011;9950;50.168;8.210;2024-02-28T00:41:38;37.03;;;18.98;;
19605;SDS011;9950;50.168;8.210;2024-02-28T00:44:07;40.25;;;19.23;;
19605;SDS011;9950;50.168;8.210;2024-02-28T00:46:34;42.97;;;19.33;;
19605;SDS011;9950;50.168;8.210;2024-02-28T00:49:01;42.42;;;20.60;;
19605;SDS011;9950;50.168;8.210;2024-02-28T00:51:28;37.33;;;18.65;;
19605;SDS011;9950;50.168;8.210;2024-02-28T00:53:55;38.65;;;18.70;;
19605;SDS011;9950;50.168;8.210;2024-02-28T00:56:22;43.53;;;19.48;;
19605;SDS011;9950;50.168;8.210;2024-02-28T00:58:52;40.97;;;19.13;;
19605;SDS011;9950;50.168;8.210;2024-02-28T01:01:20;39.25;;;19.88;;
19605;SDS011;9950;50.168;8.210;2024-02-28T01:03:47;41.88;;;19.38;;
19605;SDS011;9950;50.168;8.210;2024-02-28T01:06:15;42.42;;;18.92;;
19605;SDS011;9950;50.168;8.210;2024-02-28T01:08:42;41.38;;;20.70;;
19605;SDS011;9950;50.168;8.210;2024-02-28T01:11:09;54.22;;;24.23;;
19605;SDS011;9950;50.168;8.210;2024-02-28T01:13:36;68.82;;;28.10;;
19605;SDS011;9950;50.168;8.210;2024-02-28T01:16:04;102.13;;;32.58;;
19605;SDS011;9950;50.168;8.210;2024-02-28T01:18:32;80.85;;;30.27;;
19605;SDS011;9950;50.168;8.210;2024-02-28T01:20:59;91.53;;;34.67;;
19605;SDS011;9950;50.168;8.210;2024-02-28T01:23:26;86.03;;;32.22;;
19605;SDS011;9950;50.168;8.210;2024-02-28T01:25:54;137.20;;;36.03;;
19605;SDS011;9950;50.168;8.210;2024-02-28T01:28:21;89.75;;;34.53;;
19605;SDS011;9950;50.168;8.210;2024-02-28T01:30:48;215.25;;;34.92;;
19605;SDS011;9950;50.168;8.210;2024-02-28T01:33:15;176.07;;;37.17;;
19605;SDS011;9950;50.168;8.210;2024-02-28T01:35:43;289.20;;;36.92;;
19605;SDS011;9950;50.168;8.210;2024-02-28T01:38:11;152.82;;;33.85;;
19605;SDS011;9950;50.168;8.210;2024-02-28T01:40:38;249.45;;;35.45;;
19605;SDS011;9950;50.168;8.210;2024-02-28T01:43:06;147.82;;;34.38;;
19605;SDS011;9950;50.168;8.210;2024-02-28T01:45:33;152.73;;;36.47;;
19605;SDS011;9950;50.168;8.210;2024-02-28T01:48:01;188.57;;;35.28;;
19605;SDS011;9950;50.168;8.210;2024-02-28T01:50:30;157.18;;;34.47;;
19605;SDS011;9950;50.168;8.210;2024-02-28T01:52:58;122.10;;;33.17;;
19605;SDS011;9950;50.168;8.210;2024-02-28T01:55:26;160.43;;;37.42;;
19605;SDS011;9950;50.168;8.210;2024-02-28T01:57:53;178.00;;;34.00;;
19605;SDS011;9950;50.168;8.210;2024-02-28T02:00:20;199.35;;;36.08;;
19605;SDS011;9950;50.168;8.210;2024-02-28T02:02:48;140.60;;;34.72;;
19605;SDS011;9950;50.168;8.210;2024-02-28T02:05:15;259.80;;;37.15;;
19605;SDS011;9950;50.168;8.210;2024-02-28T02:07:45;153.90;;;36.28;;
19605;SDS011;9950;50.168;8.210;2024-02-28T02:10:15;164.38;;;35.70;;
19605;SDS011;9950;50.168;8.210;2024-02-28T02:12:42;112.53;;;31.55;;
19605;SDS011;9950;50.168;8.210;2024-02-28T02:15:09;149.48;;;32.58;;
19605;SDS011;9950;50.168;8.210;2024-02-28T02:17:36;154.35;;;33.55;;
19605;SDS011;9950;50.168;8.210;2024-02-28T02:20:03;169.93;;;32.80;;
19605;SDS011;9950;50.168;8.210;2024-02-28T02:22:34;212.60;;;36.55;;
19605;SDS011;9950;50.168;8.210;2024-02-28T02:25:03;186.02;;;35.08;;
19605;SDS011;9950;50.168;8.210;2024-02-28T02:27:30;154.43;;;34.15;;
19605;SDS011;9950;50.168;8.210;2024-02-28T02:29:57;188.73;;;35.40;;
19605;SDS011;9950;50.168;8.210;2024-02-28T02:32:25;208.70;;;33.53;;
19605;SDS011;9950;50.168;8.210;2024-02-28T02:34:52;157.68;;;31.65;;
19605;SDS011;9950;50.168;8.210;2024-02-28T02:37:19;219.00;;;33.33;;
19605;SDS011;9950;50.168;8.210;2024-02-28T02:39:47;184.15;;;33.05;;
19605;SDS011;9950;50.168;8.210;2024-02-28T02:42:14;194.57;;;31.85;;
19605;SDS011;9950;50.168;8.210;2024-02-28T02:44:42;186.82;;;32.20;;
19605;SDS011;9950;50.168;8.210;2024-02-28T02:47:09;161.82;;;30.25;;
19605;SDS011;9950;50.168;8.210;2024-02-28T02:49:37;128.80;;;30.20;;
19605;SDS011;9950;50.168;8.210;2024-02-28T02:52:04;135.68;;;30.95;;
19605;SDS011;9950;50.168;8.210;2024-02-28T02:54:31;133.80;;;29.75;;
19605;SDS011;9950;50.168;8.210;2024-02-28T02:56:59;138.30;;;31.70;;
19605;SDS011;9950;50.168;8.210;2024-02-28T02:59:26;112.05;;;28.23;;
19605;SDS011;9950;50.168;8.210;2024-02-28T03:01:54;184.32;;;34.58;;
19605;SDS011;9950;50.168;8.210;2024-02-28T03:04:21;201.18;;;35.13;;
19605;SDS011;9950;50.168;8.210;2024-02-28T03:06:48;201.48;;;31.58;;
19605;SDS011;9950;50.168;8.210;2024-02-28T03:09:15;199.23;;;37.08;;
19605;SDS011;9950;50.168;8.210;2024-02-28T03:11:42;183.85;;;30.85;;
19605;SDS011;9950;50.168;8.210;2024-02-28T03:14:10;166.40;;;32.00;;
19605;SDS011;9950;50.168;8.210;2024-02-28T03:16:40;139.95;;;30.45;;
19605;SDS011;9950;50.168;8.210;2024-02-28T03:19:07;127.43;;;30.77;;
19605;SDS011;9950;50.168;8.210;2024-02-28T03:21:35;162.88;;;31.25;;
19605;SDS011;9950;50.168;8.210;2024-02-28T03:24:02;178.40;;;30.33;;
19605;SDS011;9950;50.168;8.210;2024-02-28T03:26:29;159.10;;;31.55;;
19605;SDS011;9950;50.168;8.210;2024-02-28T03:28:56;218.60;;;33.10;;
19605;SDS011;9950;50.168;8.210;2024-02-28T03:31:25;175.60;;;33.47;;
19605;SDS011;9950;50.168;8.210;2024-02-28T03:33:52;164.45;;;32.28;;
19605;SDS011;9950;50.168;8.210;2024-02-28T03:36:19;214.32;;;33.80;;
19605;SDS011;9950;50.168;8.210;2024-02-28T03:38:46;174.73;;;29.35;;
19605;SDS011;9950;50.168;8.210;2024-02-28T03:41:13;110.30;;;30.20;;
19605;SDS011;9950;50.168;8.210;2024-02-28T03:43:41;163.30;;;32.78;;
19605;SDS011;9950;50.168;8.210;2024-02-28T03:46:08;135.70;;;29.80;;
19605;SDS011;9950;50.168;8.210;2024-02-28T03:48:36;165.30;;;30.60;;
19605;SDS011;9950;50.168;8.210;2024-02-28T03:51:03;226.52;;;32.35;;
19605;SDS011;9950;50.168;8.210;2024-02-28T03:53:31;193.80;;;33.30;;
19605;SDS011;9950;50.168;8.210;2024-02-28T03:55:58;292.77;;;33.03;;
19605;SDS011;9950;50.168;8.210;2024-02-28T03:58:25;206.50;;;31.35;;
19605;SDS011;9950;50.168;8.210;2024-02-28T04:00:52;221.68;;;30.77;;
19605;SDS011;9950;50.168;8.210;2024-02-28T04:03:19;182.63;;;33.40;;
19605;SDS011;9950;50.168;8.210;2024-02-28T04:05:47;246.45;;;33.30;;
19605;SDS011;9950;50.168;8.210;2024-02-28T04:08:15;332.35;;;39.00;;
19605;SDS011;9950;50.168;8.210;2024-02-28T04:10:42;241.18;;;33.67;;
19605;SDS011;9950;50.168;8.210;2024-02-28T04:13:09;236.40;;;34.83;;
19605;SDS011;9950;50.168;8.210;2024-02-28T04:15:36;276.40;;;33.50;;
19605;SDS011;9950;50.168;8.210;2024-02-28T04:18:03;207.75;;;32.15;;
19605;SDS011;9950;50.168;8.210;2024-02-28T04:20:30;161.23;;;29.58;;
19605;SDS011;9950;50.168;8.210;2024-02-28T04:22:59;227.18;;;33.90;;
19605;SDS011;9950;50.168;8.210;2024-02-28T04:25:26;255.57;;;34.53;;
19605;SDS011;9950;50.168;8.210;2024-02-28T04:27:53;200.63;;;32.95;;
19605;SDS011;9950;50.168;8.210;2024-02-28T04:30:22;226.20;;;30.08;;
19605;SDS011;9950;50.168;8.210;2024-02-28T04:32:49;291.50;;;31.13;;
19605;SDS011;9950;50.168;8.210;2024-02-28T04:35:16;275.20;;;33.25;;
19605;SDS011;9950;50.168;8.210;2024-02-28T04:37:43;186.52;;;29.65;;
19605;SDS011;9950;50.168;8.210;2024-02-28T04:40:12;194.40;;;30.17;;
19605;SDS011;9950;50.168;8.210;2024-02-28T04:42:40;159.88;;;30.35;;
19605;SDS011;9950;50.168;8.210;2024-02-28T04:45:08;160.30;;;28.42;;
19605;SDS011;9950;50.168;8.210;2024-02-28T04:47:36;235.02;;;31.13;;
19605;SDS011;9950;50.168;8.210;2024-02-28T04:50:03;175.02;;;29.35;;
19605;SDS011;9950;50.168;8.210;2024-02-28T04:52:30;128.05;;;30.17;;
19605;SDS011;9950;50.168;8.210;2024-02-28T04:54:58;244.73;;;31.70;;
19605;SDS011;9950;50.168;8.210;2024-02-28T04:57:26;137.65;;;30.80;;
19605;SDS011;9950;50.168;8.210;2024-02-28T04:59:53;145.93;;;33.15;;
19605;SDS011;9950;50.168;8.210;2024-02-28T05:02:20;154.27;;;31.70;;
19605;SDS011;9950;50.168;8.210;2024-02-28T05:04:49;131.82;;;30.83;;
19605;SDS011;9950;50.168;8.210;2024-02-28T05:07:16;161.10;;;32.13;;
19605;SDS011;9950;50.168;8.210;2024-02-28T05:09:43;129.65;;;31.95;;
19605;SDS011;9950;50.168;8.210;2024-02-28T05:12:10;172.15;;;36.22;;
19605;SDS011;9950;50.168;8.210;2024-02-28T05:14:39;186.57;;;33.67;;
19605;SDS011;9950;50.168;8.210;2024-02-28T05:17:06;241.35;;;36.47;;
19605;SDS011;9950;50.168;8.210;2024-02-28T05:19:33;119.45;;;31.52;;
19605;SDS011;9950;50.168;8.210;2024-02-28T05:22:00;145.98;;;32.80;;
19605;SDS011;9950;50.168;8.210;2024-02-28T05:24:28;151.43;;;34.47;;
19605;SDS011;9950;50.168;8.210;2024-02-28T05:26:55;134.80;;;34.70;;
19605;SDS011;9950;50.168;8.210;2024-02-28T05:29:22;166.25;;;33.70;;
19605;SDS011;9950;50.168;8.210;2024-02-28T05:31:50;185.45;;;34.17;;
19605;SDS011;9950;50.168;8.210;2024-02-28T05:34:17;143.73;;;34.85;;
19605;SDS011;9950;50.168;8.210;2024-02-28T05:36:44;142.40;;;33.00;;
19605;SDS011;9950;50.168;8.210;2024-02-28T05:39:12;166.60;;;34.13;;
19605;SDS011;9950;50.168;8.210;2024-02-28T05:41:39;165.98;;;34.60;;
19605;SDS011;9950;50.168;8.210;2024-02-28T05:44:06;131.18;;;34.50;;
19605;SDS011;9950;50.168;8.210;2024-02-28T05:46:33;130.98;;;31.20;;
19605;SDS011;9950;50.168;8.210;2024-02-28T05:49:03;126.80;;;33.10;;
19605;SDS011;9950;50.168;8.210;2024-02-28T05:51:30;126.95;;;32.58;;
19605;SDS011;9950;50.168;8.210;2024-02-28T05:53:57;164.65;;;30.75;;
19605;SDS011;9950;50.168;8.210;2024-02-28T05:56:24;172.15;;;33.58;;
19605;SDS011;9950;50.168;8.210;2024-02-28T05:58:51;205.98;;;35.40;;
19605;SDS011;9950;50.168;8.210;2024-02-28T06:01:18;208.10;;;37.17;;
19605;SDS011;9950;50.168;8.210;2024-02-28T06:03:46;165.13;;;32.45;;
19605;SDS011;9950;50.168;8.210;2024-02-28T06:06:15;122.70;;;30.67;;
19605;SDS011;9950;50.168;8.210;2024-02-28T06:08:42;144.55;;;29.92;;
19605;SDS011;9950;50.168;8.210;2024-02-28T06:11:10;237.15;;;33.15;;
19605;SDS011;9950;50.168;8.210;2024-02-28T06:13:37;149.65;;;30.88;;
19605;SDS011;9950;50.168;8.210;2024-02-28T06:16:05;109.70;;;31.02;;
19605;SDS011;9950;50.168;8.210;2024-02-28T06:18:32;114.63;;;30.02;;
19605;SDS011;9950;50.168;8.210;2024-02-28T06:21:00;129.70;;;31.85;;
19605;SDS011;9950;50.168;8.210;2024-02-28T06:23:28;107.72;;;32.05;;
19605;SDS011;9950;50.168;8.210;2024-02-28T06:25:55;126.10;;;33.10;;
19605;SDS011;9950;50.168;8.210;2024-02-28T06:28:22;110.35;;;31.83;;
19605;SDS011;9950;50.168;8.210;2024-02-28T06:30:50;121.85;;;32.92;;
19605;SDS011;9950;50.168;8.210;2024-02-28T06:33:17;111.40;;;31.73;;
19605;SDS011;9950;50.168;8.210;2024-02-28T06:35:44;117.45;;;31.15;;
19605;SDS011;9950;50.168;8.210;2024-02-28T06:38:11;111.57;;;31.08;;
19605;SDS011;9950;50.168;8.210;2024-02-28T06:40:40;122.50;;;29.60;;
19605;SDS011;9950;50.168;8.210;2024-02-28T06:43:07;171.55;;;32.25;;
19605;SDS011;9950;50.168;8.210;2024-02-28T06:45:34;109.13;;;28.50;;
19605;SDS011;9950;50.168;8.210;2024-02-28T06:48:02;116.55;;;31.20;;
19605;SDS011;9950;50.168;8.210;2024-02-28T06:50:29;133.10;;;30.90;;
19605;SDS011;9950;50.168;8.210;2024-02-28T06:52:56;109.07;;;29.95;;
19605;SDS011;9950;50.168;8.210;2024-02-28T06:55:24;100.03;;;28.73;;
19605;SDS011;9950;50.168;8.210;2024-02-28T06:57:52;105.82;;;29.77;;
19605;SDS011;9950;50.168;8.210;2024-02-28T07:00:19;102.90;;;28.45;;
19605;SDS011;9950;50.168;8.210;2024-02-28T07:02:46;109.95;;;30.48;;
19605;SDS011;9950;50.168;8.210;2024-02-28T07:05:13;121.25;;;30.67;;
19605;SDS011;9950;50.168;8.210;2024-02-28T07:07:41;117.88;;;32.65;;
19605;SDS011;9950;50.168;8.210;2024-02-28T07:10:08;123.53;;;31.67;;
19605;SDS011;9950;50.168;8.210;2024-02-28T07:12:35;175.27;;;31.00;;
19605;SDS011;9950;50.168;8.210;2024-02-28T07:15:04;189.77;;;32.35;;
19605;SDS011;9950;50.168;8.210;2024-02-28T07:17:31;187.73;;;31.38;;
19605;SDS011;9950;50.168;8.210;2024-02-28T07:19:58;118.18;;;31.20;;
19605;SDS011;9950;50.168;8.210;2024-02-28T07:22:25;137.43;;;30.85;;
19605;SDS011;9950;50.168;8.210;2024-02-28T07:24:52;121.03;;;29.60;;
19605;SDS011;9950;50.168;8.210;2024-02-28T07:27:21;137.25;;;31.27;;
19605;SDS011;9950;50.168;8.210;2024-02-28T07:29:49;112.28;;;29.77;;
19605;SDS011;9950;50.168;8.210;2024-02-28T07:32:17;117.18;;;29.85;;
19605;SDS011;9950;50.168;8.210;2024-02-28T07:34:44;116.03;;;30.23;;
19605;SDS011;9950;50.168;8.210;2024-02-28T07:37:11;113.97;;;29.08;;
19605;SDS011;9950;50.168;8.210;2024-02-28T07:39:39;116.30;;;26.95;;
19605;SDS011;9950;50.168;8.210;2024-02-28T07:42:06;92.53;;;25.65;;
19605;SDS011;9950;50.168;8.210;2024-02-28T07:44:33;95.93;;;26.30;;
19605;SDS011;9950;50.168;8.210;2024-02-28T07:47:00;92.43;;;27.63;;
19605;SDS011;9950;50.168;8.210;2024-02-28T07:49:28;95.57;;;26.45;;
19605;SDS011;9950;50.168;8.210;2024-02-28T07:51:55;105.47;;;28.13;;
19605;SDS011;9950;50.168;8.210;2024-02-28T07:54:23;111.53;;;28.90;;
19605;SDS011;9950;50.168;8.210;2024-02-28T07:56:50;109.65;;;27.13;;
19605;SDS011;9950;50.168;8.210;2024-02-28T07:59:18;127.68;;;28.52;;
19605;SDS011;9950;50.168;8.210;2024-02-28T08:01:45;102.63;;;26.00;;
19605;SDS011;9950;50.168;8.210;2024-02-28T08:04:12;98.97;;;27.15;;
19605;SDS011;9950;50.168;8.210;2024-02-28T08:06:41;128.23;;;26.52;;
19605;SDS011;9950;50.168;8.210;2024-02-28T08:09:08;197.60;;;29.25;;
19605;SDS011;9950;50.168;8.210;2024-02-28T08:11:37;113.35;;;26.90;;
19605;SDS011;9950;50.168;8.210;2024-02-28T08:14:04;117.47;;;27.70;;
19605;SDS011;9950;50.168;8.210;2024-02-28T08:16:31;132.18;;;27.60;;
19605;SDS011;9950;50.168;8.210;2024-02-28T08:18:58;119.47;;;26.67;;
19605;SDS011;9950;50.168;8.210;2024-02-28T08:21:25;120.63;;;26.85;;
19605;SDS011;9950;50.168;8.210;2024-02-28T08:23:55;117.20;;;27.50;;
19605;SDS011;9950;50.168;8.210;2024-02-28T08:26:23;99.43;;;27.15;;
19605;SDS011;9950;50.168;8.210;2024-02-28T08:28:50;99.10;;;27.20;;
19605;SDS011;9950;50.168;8.210;2024-02-28T08:31:17;96.75;;;26.33;;
19605;SDS011;9950;50.168;8.210;2024-02-28T08:33:44;96.13;;;27.30;;
19605;SDS011;9950;50.168;8.210;2024-02-28T08:36:11;84.38;;;26.42;;
19605;SDS011;9950;50.168;8.210;2024-02-28T08:38:38;86.25;;;26.73;;
19605;SDS011;9950;50.168;8.210;2024-02-28T08:41:07;84.40;;;24.92;;
19605;SDS011;9950;50.168;8.210;2024-02-28T08:43:37;77.75;;;23.55;;
19605;SDS011;9950;50.168;8.210;2024-02-28T08:46:04;78.18;;;24.52;;
19605;SDS011;9950;50.168;8.210;2024-02-28T08:48:32;74.55;;;23.33;;
19605;SDS011;9950;50.168;8.210;2024-02-28T08:50:59;66.45;;;22.75;;
19605;SDS011;9950;50.168;8.210;2024-02-28T08:53:26;77.35;;;24.08;;
19605;SDS011;9950;50.168;8.210;2024-02-28T08:55:53;67.65;;;23.55;;
19605;SDS011;9950;50.168;8.210;2024-02-28T08:58:22;81.40;;;25.75;;
19605;SDS011;9950;50.168;8.210;2024-02-28T09:00:49;73.47;;;24.75;;
19605;SDS011;9950;50.168;8.210;2024-02-28T09:03:16;70.50;;;22.90;;
19605;SDS011;9950;50.168;8.210;2024-02-28T09:05:44;70.43;;;23.63;;
19605;SDS011;9950;50.168;8.210;2024-02-28T09:08:12;69.32;;;24.10;;
19605;SDS011;9950;50.168;8.210;2024-02-28T09:10:40;77.63;;;23.85;;
19605;SDS011;9950;50.168;8.210;2024-02-28T09:13:07;75.60;;;23.63;;
19605;SDS011;9950;50.168;8.210;2024-02-28T09:15:36;72.95;;;24.95;;
19605;SDS011;9950;50.168;8.210;2024-02-28T09:18:04;68.05;;;23.30;;
19605;SDS011;9950;50.168;8.210;2024-02-28T09:20:31;69.53;;;24.05;;
19605;SDS011;9950;50.168;8.210;2024-02-28T09:22:58;67.35;;;23.25;;
19605;SDS011;9950;50.168;8.210;2024-02-28T09:25:25;70.85;;;24.08;;
19605;SDS011;9950;50.168;8.210;2024-02-28T09:27:52;64.78;;;24.40;;
19605;SDS011;9950;50.168;8.210;2024-02-28T09:30:20;72.35;;;25.42;;
19605;SDS011;9950;50.168;8.210;2024-02-28T09:32:48;71.10;;;25.27;;
19605;SDS011;9950;50.168;8.210;2024-02-28T09:35:16;67.10;;;24.50;;
19605;SDS011;9950;50.168;8.210;2024-02-28T09:37:43;60.08;;;22.45;;
19605;SDS011;9950;50.168;8.210;2024-02-28T09:40:11;58.55;;;22.13;;
19605;SDS011;9950;50.168;8.210;2024-02-28T09:42:39;63.03;;;23.85;;
19605;SDS011;9950;50.168;8.210;2024-02-28T09:45:07;60.25;;;21.13;;
19605;SDS011;9950;50.168;8.210;2024-02-28T09:47:35;58.80;;;22.15;;
19605;SDS011;9950;50.168;8.210;2024-02-28T09:50:04;50.90;;;20.55;;
19605;SDS011;9950;50.168;8.210;2024-02-28T09:52:31;59.20;;;22.73;;
19605;SDS011;9950;50.168;8.210;2024-02-28T09:54:58;53.85;;;21.40;;
19605;SDS011;9950;50.168;8.210;2024-02-28T09:57:25;54.58;;;21.67;;
19605;SDS011;9950;50.168;8.210;2024-02-28T09:59:55;53.03;;;20.95;;
19605;SDS011;9950;50.168;8.210;2024-02-28T10:02:23;56.10;;;21.85;;
19605;SDS011;9950;50.168;8.210;2024-02-28T10:04:50;53.55;;;21.65;;
19605;SDS011;9950;50.168;8.210;2024-02-28T10:07:20;60.85;;;22.08;;
19605;SDS011;9950;50.168;8.210;2024-02-28T10:09:47;51.22;;;19.17;;
19605;SDS011;9950;50.168;8.210;2024-02-28T10:12:14;50.38;;;19.60;;
19605;SDS011;9950;50.168;8.210;2024-02-28T10:14:41;52.13;;;20.90;;
19605;SDS011;9950;50.168;8.210;2024-02-28T10:17:09;50.60;;;20.05;;
19605;SDS011;9950;50.168;8.210;2024-02-28T10:19:36;49.25;;;19.80;;
19605;SDS011;9950;50.168;8.210;2024-02-28T10:22:03;48.53;;;20.10;;
19605;SDS011;9950;50.168;8.210;2024-02-28T10:24:33;48.75;;;20.42;;
19605;SDS011;9950;50.168;8.210;2024-02-28T10:27:02;52.42;;;19.92;;
19605;SDS011;9950;50.168;8.210;2024-02-28T10:29:30;54.05;;;20.17;;
19605;SDS011;9950;50.168;8.210;2024-02-28T10:31:57;52.65;;;19.83;;
19605;SDS011;9950;50.168;8.210;2024-02-28T10:34:25;47.95;;;18.88;;
19605;SDS011;9950;50.168;8.210;2024-02-28T10:36:52;47.20;;;18.83;;
19605;SDS011;9950;50.168;8.210;2024-02-28T10:39:19;46.50;;;18.65;;
19605;SDS011;9950;50.168;8.210;2024-02-28T10:41:50;44.65;;;18.80;;
19605;SDS011;9950;50.168;8.210;2024-02-28T10:44:17;47.47;;;19.77;;
19605;SDS011;9950;50.168;8.210;2024-02-28T10:46:45;45.70;;;19.23;;
19605;SDS011;9950;50.168;8.210;2024-02-28T10:49:15;50.17;;;20.55;;
19605;SDS011;9950;50.168;8.210;2024-02-28T10:51:43;49.35;;;20.20;;
19605;SDS011;9950;50.168;8.210;2024-02-28T10:54:12;45.17;;;19.48;;
19605;SDS011;9950;50.168;8.210;2024-02-28T10:56:40;51.28;;;22.08;;
19605;SDS011;9950;50.168;8.210;2024-02-28T10:59:09;50.05;;;21.90;;
19605;SDS011;9950;50.168;8.210;2024-02-28T11:01:36;47.67;;;20.45;;
19605;SDS011;9950;50.168;8.210;2024-02-28T11:04:06;48.58;;;20.52;;
19605;SDS011;9950;50.168;8.210;2024-02-28T11:06:34;54.15;;;20.98;;
19605;SDS011;9950;50.168;8.210;2024-02-28T11:09:02;44.22;;;19.90;;
19605;SDS011;9950;50.168;8.210;2024-02-28T11:11:30;46.95;;;19.90;;
19605;SDS011;9950;50.168;8.210;2024-02-28T11:13:58;47.83;;;20.13;;
19605;SDS011;9950;50.168;8.210;2024-02-28T11:16:28;48.47;;;20.48;;
19605;SDS011;9950;50.168;8.210;2024-02-28T11:18:55;50.60;;;21.00;;
19605;SDS011;9950;50.168;8.210;2024-02-28T11:21:23;50.45;;;21.50;;
19605;SDS011;9950;50.168;8.210;2024-02-28T11:23:51;49.42;;;20.17;;
19605;SDS011;9950;50.168;8.210;2024-02-28T11:26:18;47.92;;;20.73;;
19605;SDS011;9950;50.168;8.210;2024-02-28T11:28:46;44.92;;;19.30;;
19605;SDS011;9950;50.168;8.210;2024-02-28T11:31:14;42.50;;;18.48;;
19605;SDS011;9950;50.168;8.210;2024-02-28T11:33:42;43.45;;;20.05;;
19605;SDS011;9950;50.168;8.210;2024-02-28T11:36:11;47.08;;;19.50;;
19605;SDS011;9950;50.168;8.210;2024-02-28T11:38:39;49.85;;;20.83;;
19605;SDS011;9950;50.168;8.210;2024-02-28T11:41:06;42.78;;;19.10;;
19605;SDS011;9950;50.168;8.210;2024-02-28T11:43:34;41.53;;;17.85;;
19605;SDS011;9950;50.168;8.210;2024-02-28T11:46:01;40.38;;;17.98;;
19605;SDS011;9950;50.168;8.210;2024-02-28T11:48:29;42.38;;;18.25;;
19605;SDS011;9950;50.168;8.210;2024-02-28T11:50:59;46.95;;;20.48;;
19605;SDS011;9950;50.168;8.210;2024-02-28T11:53:26;40.45;;;17.75;;
19605;SDS011;9950;50.168;8.210;2024-02-28T11:55:53;41.60;;;18.25;;
19605;SDS011;9950;50.168;8.210;2024-02-28T11:58:22;37.90;;;17.83;;
19605;SDS011;9950;50.168;8.210;2024-02-28T12:00:49;34.88;;;17.45;;
19605;SDS011;9950;50.168;8.210;2024-02-28T12:03:20;36.15;;;15.85;;
19605;SDS011;9950;50.168;8.210;2024-02-28T12:05:47;34.03;;;15.77;;
19605;SDS011;9950;50.168;8.210;2024-02-28T12:08:16;34.63;;;16.17;;
19605;SDS011;9950;50.168;8.210;2024-02-28T12:10:43;37.95;;;16.88;;
19605;SDS011;9950;50.168;8.210;2024-02-28T12:13:10;34.17;;;16.08;;
19605;SDS011;9950;50.168;8.210;2024-02-28T12:15:38;34.92;;;16.33;;
19605;SDS011;9950;50.168;8.210;2024-02-28T12:18:07;27.55;;;14.43;;
19605;SDS011;9950;50.168;8.210;2024-02-28T12:20:35;29.98;;;13.88;;
19605;SDS011;9950;50.168;8.210;2024-02-28T12:23:04;29.02;;;13.57;;
19605;SDS011;9950;50.168;8.210;2024-02-28T12:25:34;28.63;;;13.55;;
19605;SDS011;9950;50.168;8.210;2024-02-28T12:28:03;29.15;;;13.63;;
19605;SDS011;9950;50.168;8.210;2024-02-28T12:30:38;28.48;;;13.40;;
19605;SDS011;9950;50.168;8.210;2024-02-28T12:33:06;25.15;;;12.48;;
19605;SDS011;9950;50.168;8.210;2024-02-28T12:35:33;25.98;;;12.80;;
19605;SDS011;9950;50.168;8.210;2024-02-28T12:38:00;23.75;;;12.48;;
19605;SDS011;9950;50.168;8.210;2024-02-28T12:40:27;24.70;;;12.77;;
19605;SDS011;9950;50.168;8.210;2024-02-28T12:42:56;23.67;;;11.70;;
19605;SDS011;9950;50.168;8.210;2024-02-28T12:45:23;24.15;;;11.80;;
19605;SDS011;9950;50.168;8.210;2024-02-28T12:47:50;24.27;;;12.50;;
19605;SDS011;9950;50.168;8.210;2024-02-28T12:50:18;23.58;;;11.90;;
19605;SDS011;9950;50.168;8.210;2024-02-28T12:52:46;26.15;;;12.82;;
19605;SDS011;9950;50.168;8.210;2024-02-28T12:55:18;23.75;;;11.32;;
19605;SDS011;9950;50.168;8.210;2024-02-28T12:57:45;25.50;;;12.57;;
19605;SDS011;9950;50.168;8.210;2024-02-28T13:00:14;22.75;;;11.13;;
19605;SDS011;9950;50.168;8.210;2024-02-28T13:02:41;22.50;;;11.23;;
19605;SDS011;9950;50.168;8.210;2024-02-28T13:05:09;24.73;;;12.70;;
19605;SDS011;9950;50.168;8.210;2024-02-28T13:07:38;20.77;;;10.77;;
19605;SDS011;9950;50.168;8.210;2024-02-28T13:10:05;22.48;;;11.60;;
19605;SDS011;9950;50.168;8.210;2024-02-28T13:12:34;20.50;;;11.10;;
19605;SDS011;9950;50.168;8.210;2024-02-28T13:15:01;24.60;;;12.75;;
19605;SDS011;9950;50.168;8.210;2024-02-28T13:17:31;22.30;;;12.45;;
19605;SDS011;9950;50.168;8.210;2024-02-28T13:19:58;24.77;;;12.57;;
19605;SDS011;9950;50.168;8.210;2024-02-28T13:22:25;22.20;;;12.18;;
19605;SDS011;9950;50.168;8.210;2024-02-28T13:24:53;24.10;;;12.68;;
19605;SDS011;9950;50.168;8.210;2024-02-28T13:27:20;20.73;;;11.70;;
19605;SDS011;9950;50.168;8.210;2024-02-28T13:29:47;22.55;;;12.23;;
19605;SDS011;9950;50.168;8.210;2024-02-28T13:32:14;19.00;;;11.00;;
19605;SDS011;9950;50.168;8.210;2024-02-28T13:34:43;20.05;;;11.13;;
19605;SDS011;9950;50.168;8.210;2024-02-28T13:37:10;21.13;;;11.68;;
19605;SDS011;9950;50.168;8.210;2024-02-28T13:39:37;23.35;;;12.45;;
19605;SDS011;9950;50.168;8.210;2024-02-28T13:42:04;21.13;;;11.85;;
19605;SDS011;9950;50.168;8.210;2024-02-28T13:44:34;21.40;;;11.75;;
19605;SDS011;9950;50.168;8.210;2024-02-28T13:47:03;22.95;;;11.73;;
19605;SDS011;9950;50.168;8.210;2024-02-28T13:49:30;21.35;;;12.00;;
19605;SDS011;9950;50.168;8.210;2024-02-28T13:51:59;18.08;;;11.70;;
19605;SDS011;9950;50.168;8.210;2024-02-28T13:54:26;18.40;;;11.40;;
19605;SDS011;9950;50.168;8.210;2024-02-28T13:56:53;18.10;;;11.70;;
19605;SDS011;9950;50.168;8.210;2024-02-28T13:59:20;21.15;;;11.48;;
19605;SDS011;9950;50.168;8.210;2024-02-28T14:01:48;21.17;;;12.68;;
19605;SDS011;9950;50.168;8.210;2024-02-28T14:04:16;17.42;;;10.60;;
19605;SDS011;9950;50.168;8.210;2024-02-28T14:06:44;18.25;;;11.13;;
19605;SDS011;9950;50.168;8.210;2024-02-28T14:09:12;17.48;;;10.77;;
19605;SDS011;9950;50.168;8.210;2024-02-28T14:11:39;17.52;;;11.70;;
19605;SDS011;9950;50.168;8.210;2024-02-28T14:14:07;18.65;;;10.90;;
19605;SDS011;9950;50.168;8.210;2024-02-28T14:16:34;21.40;;;11.85;;
19605;SDS011;9950;50.168;8.210;2024-02-28T14:19:01;17.80;;;10.95;;
19605;SDS011;9950;50.168;8.210;2024-02-28T14:21:29;17.92;;;10.50;;
19605;SDS011;9950;50.168;8.210;2024-02-28T14:23:56;18.55;;;10.45;;
19605;SDS011;9950;50.168;8.210;2024-02-28T14:26:25;19.50;;;11.18;;
19605;SDS011;9950;50.168;8.210;2024-02-28T14:28:52;19.23;;;10.98;;
19605;SDS011;9950;50.168;8.210;2024-02-28T14:31:20;17.63;;;10.98;;